sensor_id;sensor_type;location;lat;lon;timestamp;pressure;altitude;pressure_sealevel;temperature;humidity
75788;BME280;64406;50.024;14.492;2023-07-30T00:01:42;97489.41;;;15.43;89.05
75788;BME280;64406;50.024;14.492;2023-07-30T00:04:07;97482.56;;;15.46;88.72
75788;BME280;64406;50.024;14.492;2023-07-30T00:06:33;97484.66;;;15.40;89.21
75788;BME280;64406;50.024;14.492;2023-07-30T00:08:58;97482.91;;;15.36;89.36
75788;BME280;64406;50.024;14.492;2023-07-30T00:11:24;97491.91;;;15.28;90.24
75788;BME280;64406;50.024;14.492;2023-07-30T00:13:50;97495.13;;;15.21;90.83
75788;BME280;64406;50.024;14.492;2023-07-30T00:16:16;97492.41;;;15.21;91.28
75788;BME280;64406;50.024;14.492;2023-07-30T00:18:41;97491.13;;;15.18;91.23
75788;BME280;64406;50.024;14.492;2023-07-30T00:21:07;97488.28;;;15.15;91.77
75788;BME280;64406;50.024;14.492;2023-07-30T00:23:32;97488.13;;;15.11;91.72
75788;BME280;64406;50.024;14.492;2023-07-30T00:25:58;97493.25;;;15.13;91.42
75788;BME280;64406;50.024;14.492;2023-07-30T00:28:24;97482.72;;;15.11;91.89
75788;BME280;64406;50.024;14.492;2023-07-30T00:30:49;97493.28;;;15.04;92.26
75788;BME280;64406;50.024;14.492;2023-07-30T00:33:15;97488.06;;;14.99;93.28
75788;BME280;64406;50.024;14.492;2023-07-30T00:35:40;97481.81;;;14.99;92.65
75788;BME280;64406;50.024;14.492;2023-07-30T00:38:06;97477.66;;;15.01;93.26
75788;BME280;64406;50.024;14.492;2023-07-30T00:40:32;97468.25;;;14.99;92.56
75788;BME280;64406;50.024;14.492;2023-07-30T00:42:57;97466.81;;;15.01;92.81
75788;BME280;64406;50.024;14.492;2023-07-30T00:45:23;97475.88;;;15.05;92.93
75788;BME280;64406;50.024;14.492;2023-07-30T00:47:48;97473.84;;;15.02;93.38
75788;BME280;64406;50.024;14.492;2023-07-30T00:50:15;97477.34;;;15.03;93.24
75788;BME280;64406;50.024;14.492;2023-07-30T00:52:40;97466.50;;;15.03;93.58
75788;BME280;64406;50.024;14.492;2023-07-30T00:55:07;97473.03;;;15.02;93.88
75788;BME280;64406;50.024;14.492;2023-07-30T00:57:34;97467.66;;;14.93;94.40
75788;BME280;64406;50.024;14.492;2023-07-30T01:00:00;97467.31;;;14.94;94.16
75788;BME280;64406;50.024;14.492;2023-07-30T01:02:29;97468.88;;;15.04;94.63
75788;BME280;64406;50.024;14.492;2023-07-30T01:04:57;97464.63;;;14.94;94.60
75788;BME280;64406;50.024;14.492;2023-07-30T01:07:22;97464.63;;;14.94;95.02
75788;BME280;64406;50.024;14.492;2023-07-30T01:09:48;97460.94;;;14.90;95.23
75788;BME280;64406;50.024;14.492;2023-07-30T01:12:14;97458.72;;;14.92;95.26
75788;BME280;64406;50.024;14.492;2023-07-30T01:14:40;97465.41;;;14.95;94.80
75788;BME280;64406;50.024;14.492;2023-07-30T01:17:05;97461.41;;;15.01;94.40
75788;BME280;64406;50.024;14.492;2023-07-30T01:19:31;97474.00;;;15.06;94.02
75788;BME280;64406;50.024;14.492;2023-07-30T01:21:57;97474.84;;;15.18;93.75
75788;BME280;64406;50.024;14.492;2023-07-30T01:24:23;97474.69;;;15.23;92.86
75788;BME280;64406;50.024;14.492;2023-07-30T01:27:20;97478.34;;;15.28;92.75
75788;BME280;64406;50.024;14.492;2023-07-30T01:32:11;97472.63;;;15.20;93.08
75788;BME280;64406;50.024;14.492;2023-07-30T01:34:39;97485.72;;;15.18;93.17
75788;BME280;64406;50.024;14.492;2023-07-30T01:37:08;97484.78;;;15.14;93.20
75788;BME280;64406;50.024;14.492;2023-07-30T01:39:36;97481.28;;;15.14;93.62
75788;BME280;64406;50.024;14.492;2023-07-30T01:42:03;97482.06;;;15.14;93.12
75788;BME280;64406;50.024;14.492;2023-07-30T01:44:29;97480.78;;;15.12;93.37
75788;BME280;64406;50.024;14.492;2023-07-30T01:46:55;97497.56;;;15.14;93.12
75788;BME280;64406;50.024;14.492;2023-07-30T01:49:20;97484.97;;;15.09;93.20
75788;BME280;64406;50.024;14.492;2023-07-30T01:51:46;97484.16;;;15.09;93.24
75788;BME280;64406;50.024;14.492;2023-07-30T01:54:12;97484.00;;;15.14;92.90
75788;BME280;64406;50.024;14.492;2023-07-30T01:56:37;97493.53;;;15.20;93.11
75788;BME280;64406;50.024;14.492;2023-07-30T01:59:03;97489.56;;;15.17;93.19
75788;BME280;64406;50.024;14.492;2023-07-30T02:01:28;97491.66;;;15.12;93.78
75788;BME280;64406;50.024;14.492;2023-07-30T02:03:54;97492.31;;;15.09;93.89
75788;BME280;64406;50.024;14.492;2023-07-30T02:06:19;97499.47;;;15.13;94.17
75788;BME280;64406;50.024;14.492;2023-07-30T02:08:45;97494.06;;;15.13;94.30
75788;BME280;64406;50.024;14.492;2023-07-30T02:11:10;97487.16;;;15.16;94.05
75788;BME280;64406;50.024;14.492;2023-07-30T02:13:36;97492.09;;;15.22;93.61
75788;BME280;64406;50.024;14.492;2023-07-30T02:16:02;97489.38;;;15.22;93.66
75788;BME280;64406;50.024;14.492;2023-07-30T02:18:27;97489.09;;;15.15;93.84
75788;BME280;64406;50.024;14.492;2023-07-30T02:20:53;97491.34;;;15.13;94.19
75788;BME280;64406;50.024;14.492;2023-07-30T02:23:19;97483.50;;;15.12;94.74
75788;BME280;64406;50.024;14.492;2023-07-30T02:25:44;97485.72;;;15.18;94.58
75788;BME280;64406;50.024;14.492;2023-07-30T02:28:10;97483.63;;;15.24;94.26
75788;BME280;64406;50.024;14.492;2023-07-30T02:30:36;97484.91;;;15.18;94.78
75788;BME280;64406;50.024;14.492;2023-07-30T02:33:01;97484.34;;;15.12;95.13
75788;BME280;64406;50.024;14.492;2023-07-30T02:35:27;97483.84;;;15.10;95.41
75788;BME280;64406;50.024;14.492;2023-07-30T02:37:53;97480.34;;;15.10;95.22
75788;BME280;64406;50.024;14.492;2023-07-30T02:40:18;97486.22;;;15.12;95.77
75788;BME280;64406;50.024;14.492;2023-07-30T02:42:44;97483.56;;;15.03;95.82
75788;BME280;64406;50.024;14.492;2023-07-30T02:45:09;97483.09;;;15.01;96.45
75788;BME280;64406;50.024;14.492;2023-07-30T02:47:35;97483.88;;;15.02;96.34
75788;BME280;64406;50.024;14.492;2023-07-30T02:50:02;97479.09;;;14.99;96.34
75788;BME280;64406;50.024;14.492;2023-07-30T02:52:28;97488.34;;;14.98;96.26
75788;BME280;64406;50.024;14.492;2023-07-30T02:54:54;97485.84;;;14.92;96.95
75788;BME280;64406;50.024;14.492;2023-07-30T02:57:19;97485.03;;;14.92;97.06
75788;BME280;64406;50.024;14.492;2023-07-30T02:59:45;97484.72;;;14.93;97.04
75788;BME280;64406;50.024;14.492;2023-07-30T03:02:10;97486.31;;;14.94;96.70
75788;BME280;64406;50.024;14.492;2023-07-30T03:04:36;97486.94;;;15.00;96.28
75788;BME280;64406;50.024;14.492;2023-07-30T03:07:02;97484.84;;;14.97;96.22
75788;BME280;64406;50.024;14.492;2023-07-30T03:09:27;97486.13;;;15.00;96.61
75788;BME280;64406;50.024;14.492;2023-07-30T03:11:53;97488.84;;;15.00;95.86
75788;BME280;64406;50.024;14.492;2023-07-30T03:14:19;97484.22;;;14.91;96.22
75788;BME280;64406;50.024;14.492;2023-07-30T03:16:49;97487.59;;;14.88;96.40
75788;BME280;64406;50.024;14.492;2023-07-30T03:19:15;97482.66;;;14.90;96.42
75788;BME280;64406;50.024;14.492;2023-07-30T03:21:41;97483.78;;;14.89;96.88
75788;BME280;64406;50.024;14.492;2023-07-30T03:24:06;97487.59;;;14.88;96.96
75788;BME280;64406;50.024;14.492;2023-07-30T03:26:32;97482.50;;;14.87;96.58
75788;BME280;64406;50.024;14.492;2023-07-30T03:28:57;97487.75;;;14.92;96.86
75788;BME280;64406;50.024;14.492;2023-07-30T03:31:23;97474.63;;;15.03;96.73
75788;BME280;64406;50.024;14.492;2023-07-30T03:33:48;97475.91;;;14.96;96.75
75788;BME280;64406;50.024;14.492;2023-07-30T03:36:14;97476.09;;;15.00;97.02
75788;BME280;64406;50.024;14.492;2023-07-30T03:38:40;97479.25;;;15.02;97.34
75788;BME280;64406;50.024;14.492;2023-07-30T03:41:06;97475.56;;;15.07;97.07
75788;BME280;64406;50.024;14.492;2023-07-30T03:43:32;97477.66;;;15.01;97.11
75788;BME280;64406;50.024;14.492;2023-07-30T03:45:58;97475.28;;;15.00;97.12
75788;BME280;64406;50.024;14.492;2023-07-30T03:48:24;97461.41;;;15.01;97.63
75788;BME280;64406;50.024;14.492;2023-07-30T03:50:49;97467.47;;;14.98;97.55
75788;BME280;64406;50.024;14.492;2023-07-30T03:53:15;97464.63;;;14.94;97.79
75788;BME280;64406;50.024;14.492;2023-07-30T03:55:41;97467.47;;;14.98;97.96
75788;BME280;64406;50.024;14.492;2023-07-30T03:58:06;97457.28;;;14.95;97.90
75788;BME280;64406;50.024;14.492;2023-07-30T04:00:32;97458.25;;;14.90;98.31
75788;BME280;64406;50.024;14.492;2023-07-30T04:02:57;97454.28;;;14.88;98.72
75788;BME280;64406;50.024;14.492;2023-07-30T04:05:23;97454.28;;;14.88;98.76
75788;BME280;64406;50.024;14.492;2023-07-30T04:07:49;97452.81;;;14.90;98.62
75788;BME280;64406;50.024;14.492;2023-07-30T04:10:15;97448.69;;;14.93;98.83
75788;BME280;64406;50.024;14.492;2023-07-30T04:12:40;97452.31;;;14.97;98.44
75788;BME280;64406;50.024;14.492;2023-07-30T04:15:06;97464.09;;;15.01;98.36
75788;BME280;64406;50.024;14.492;2023-07-30T04:17:32;97467.94;;;15.00;98.48
75788;BME280;64406;50.024;14.492;2023-07-30T04:19:57;97468.75;;;15.01;98.65
75788;BME280;64406;50.024;14.492;2023-07-30T04:22:23;97479.25;;;15.02;98.61
75788;BME280;64406;50.024;14.492;2023-07-30T04:24:49;97478.91;;;15.12;98.21
75788;BME280;64406;50.024;14.492;2023-07-30T04:27:14;97486.03;;;15.17;97.88
75788;BME280;64406;50.024;14.492;2023-07-30T04:29:40;97490.63;;;15.25;97.50
75788;BME280;64406;50.024;14.492;2023-07-30T04:32:06;97490.13;;;15.32;96.81
75788;BME280;64406;50.024;14.492;2023-07-30T04:34:32;97492.00;;;15.40;96.61
75788;BME280;64406;50.024;14.492;2023-07-30T04:36:57;97473.94;;;15.44;96.38
75788;BME280;64406;50.024;14.492;2023-07-30T04:39:23;97479.63;;;15.51;96.11
75788;BME280;64406;50.024;14.492;2023-07-30T04:41:48;97484.06;;;15.56;95.46
75788;BME280;64406;50.024;14.492;2023-07-30T04:44:14;97489.97;;;15.66;95.53
75788;BME280;64406;50.024;14.492;2023-07-30T04:46:39;97490.84;;;15.79;94.86
75788;BME280;64406;50.024;14.492;2023-07-30T04:49:05;97492.09;;;15.82;94.29
75788;BME280;64406;50.024;14.492;2023-07-30T04:51:31;97488.72;;;15.85;94.81
75788;BME280;64406;50.024;14.492;2023-07-30T04:53:57;97486.56;;;15.90;94.07
75788;BME280;64406;50.024;14.492;2023-07-30T04:56:22;97496.25;;;16.00;93.84
75788;BME280;64406;50.024;14.492;2023-07-30T04:58:48;97490.22;;;16.15;93.68
75788;BME280;64406;50.024;14.492;2023-07-30T05:01:13;97491.41;;;16.26;92.55
75788;BME280;64406;50.024;14.492;2023-07-30T05:03:39;97495.88;;;16.43;91.44
75788;BME280;64406;50.024;14.492;2023-07-30T05:06:05;97503.28;;;16.55;90.78
75788;BME280;64406;50.024;14.492;2023-07-30T05:08:31;97502.53;;;16.67;90.03
75788;BME280;64406;50.024;14.492;2023-07-30T05:10:56;97507.44;;;16.73;89.82
75788;BME280;64406;50.024;14.492;2023-07-30T05:13:22;97507.69;;;16.80;88.96
75788;BME280;64406;50.024;14.492;2023-07-30T05:15:47;97508.06;;;16.91;88.61
75788;BME280;64406;50.024;14.492;2023-07-30T05:18:13;97514.44;;;17.07;87.84
75788;BME280;64406;50.024;14.492;2023-07-30T05:20:39;97502.41;;;17.21;87.25
75788;BME280;64406;50.024;14.492;2023-07-30T05:23:04;97508.31;;;17.35;86.16
75788;BME280;64406;50.024;14.492;2023-07-30T05:25:32;97515.13;;;17.41;86.68
75788;BME280;64406;50.024;14.492;2023-07-30T05:27:58;97512.31;;;17.37;86.29
75788;BME280;64406;50.024;14.492;2023-07-30T05:30:23;97511.84;;;17.35;86.17
75788;BME280;64406;50.024;14.492;2023-07-30T05:32:49;97512.41;;;17.41;85.83
75788;BME280;64406;50.024;14.492;2023-07-30T05:35:15;97515.25;;;17.45;85.94
75788;BME280;64406;50.024;14.492;2023-07-30T05:37:41;97517.97;;;17.45;85.35
75788;BME280;64406;50.024;14.492;2023-07-30T05:40:06;97507.53;;;17.47;85.56
75788;BME280;64406;50.024;14.492;2023-07-30T05:42:32;97513.53;;;17.52;85.06
75788;BME280;64406;50.024;14.492;2023-07-30T05:44:58;97516.84;;;17.46;84.94
75788;BME280;64406;50.024;14.492;2023-07-30T05:47:23;97512.75;;;17.52;85.09
75788;BME280;64406;50.024;14.492;2023-07-30T05:49:49;97514.78;;;17.55;84.71
75788;BME280;64406;50.024;14.492;2023-07-30T05:52:15;97518.28;;;17.55;85.08
75788;BME280;64406;50.024;14.492;2023-07-30T05:54:40;97515.34;;;17.60;84.35
75788;BME280;64406;50.024;14.492;2023-07-30T05:57:06;97521.94;;;17.59;84.33
75788;BME280;64406;50.024;14.492;2023-07-30T05:59:31;97530.66;;;17.65;84.46
75788;BME280;64406;50.024;14.492;2023-07-30T06:02:02;97527.16;;;17.64;83.81
75788;BME280;64406;50.024;14.492;2023-07-30T06:04:28;97533.03;;;17.66;83.55
75788;BME280;64406;50.024;14.492;2023-07-30T06:06:54;97529.34;;;17.71;83.46
75788;BME280;64406;50.024;14.492;2023-07-30T06:09:19;97533.16;;;17.70;83.21
75788;BME280;64406;50.024;14.492;2023-07-30T06:11:45;97536.47;;;17.76;83.06
75788;BME280;64406;50.024;14.492;2023-07-30T06:14:10;97541.59;;;17.89;82.42
75788;BME280;64406;50.024;14.492;2023-07-30T06:16:36;97537.16;;;17.85;82.75
75788;BME280;64406;50.024;14.492;2023-07-30T06:19:02;97532.38;;;17.82;83.09
75788;BME280;64406;50.024;14.492;2023-07-30T06:21:28;97537.16;;;17.85;82.92
75788;BME280;64406;50.024;14.492;2023-07-30T06:23:53;97533.16;;;17.82;82.46
75788;BME280;64406;50.024;14.492;2023-07-30T06:26:19;97534.31;;;17.81;82.94
75788;BME280;64406;50.024;14.492;2023-07-30T06:28:45;97534.53;;;17.88;82.72
75788;BME280;64406;50.024;14.492;2023-07-30T06:31:11;97526.03;;;17.78;83.11
75788;BME280;64406;50.024;14.492;2023-07-30T06:33:36;97535.88;;;17.82;82.56
75788;BME280;64406;50.024;14.492;2023-07-30T06:36:04;97526.22;;;17.97;81.94
75788;BME280;64406;50.024;14.492;2023-07-30T06:38:29;97533.03;;;18.03;82.17
75788;BME280;64406;50.024;14.492;2023-07-30T06:40:55;97532.41;;;18.22;81.17
75788;BME280;64406;50.024;14.492;2023-07-30T06:43:23;97532.03;;;18.36;80.55
75788;BME280;64406;50.024;14.492;2023-07-30T06:45:49;97519.84;;;18.61;79.13
75788;BME280;64406;50.024;14.492;2023-07-30T06:48:14;97526.09;;;18.74;78.02
75788;BME280;64406;50.024;14.492;2023-07-30T06:50:41;97529.66;;;18.62;78.71
75788;BME280;64406;50.024;14.492;2023-07-30T06:53:07;97532.16;;;18.55;79.21
75788;BME280;64406;50.024;14.492;2023-07-30T06:55:33;97539.56;;;18.55;78.90
75788;BME280;64406;50.024;14.492;2023-07-30T06:57:58;97531.91;;;18.88;78.15
75788;BME280;64406;50.024;14.492;2023-07-30T07:00:24;97537.03;;;18.90;77.33
75788;BME280;64406;50.024;14.492;2023-07-30T07:02:50;97545.00;;;18.67;78.74
75788;BME280;64406;50.024;14.492;2023-07-30T07:05:16;97560.44;;;18.63;78.90
75788;BME280;64406;50.024;14.492;2023-07-30T07:07:42;97551.97;;;18.52;79.46
75788;BME280;64406;50.024;14.492;2023-07-30T07:10:08;97553.94;;;18.39;79.96
75788;BME280;64406;50.024;14.492;2023-07-30T07:12:36;97566.72;;;18.23;80.36
75788;BME280;64406;50.024;14.492;2023-07-30T07:15:03;97571.16;;;18.15;80.75
75788;BME280;64406;50.024;14.492;2023-07-30T07:17:29;97566.38;;;18.25;80.59
75788;BME280;64406;50.024;14.492;2023-07-30T07:19:55;97571.03;;;18.24;80.74
75788;BME280;64406;50.024;14.492;2023-07-30T07:22:20;97581.97;;;18.12;81.07
75788;BME280;64406;50.024;14.492;2023-07-30T07:24:46;97588.66;;;18.02;81.09
75788;BME280;64406;50.024;14.492;2023-07-30T07:27:12;97590.16;;;18.00;82.92
75788;BME280;64406;50.024;14.492;2023-07-30T07:29:37;97590.72;;;17.93;82.65
75788;BME280;64406;50.024;14.492;2023-07-30T07:32:03;97591.50;;;17.93;82.80
75788;BME280;64406;50.024;14.492;2023-07-30T07:34:29;97593.00;;;17.79;83.18
75788;BME280;64406;50.024;14.492;2023-07-30T07:36:54;97592.88;;;17.75;84.00
75788;BME280;64406;50.024;14.492;2023-07-30T07:39:20;97596.03;;;17.65;84.83
75788;BME280;64406;50.024;14.492;2023-07-30T07:41:46;97589.34;;;17.50;86.69
75788;BME280;64406;50.024;14.492;2023-07-30T07:44:11;97601.34;;;17.37;89.37
75788;BME280;64406;50.024;14.492;2023-07-30T07:46:37;97613.53;;;16.73;96.96
75788;BME280;64406;50.024;14.492;2023-07-30T07:49:03;97630.72;;;16.15;100.00
75788;BME280;64406;50.024;14.492;2023-07-30T07:51:28;97643.59;;;15.97;100.00
75788;BME280;64406;50.024;14.492;2023-07-30T07:53:54;97639.44;;;15.70;100.00
75788;BME280;64406;50.024;14.492;2023-07-30T07:56:20;97638.09;;;15.29;100.00
75788;BME280;64406;50.024;14.492;2023-07-30T07:58:45;97637.00;;;15.21;100.00
75788;BME280;64406;50.024;14.492;2023-07-30T08:01:11;97639.25;;;15.11;100.00
75788;BME280;64406;50.024;14.492;2023-07-30T08:03:37;97645.19;;;14.95;100.00
75788;BME280;64406;50.024;14.492;2023-07-30T08:06:02;97639.44;;;14.97;100.00
75788;BME280;64406;50.024;14.492;2023-07-30T08:08:28;97644.25;;;14.83;100.00
75788;BME280;64406;50.024;14.492;2023-07-30T08:10:54;97616.81;;;14.84;100.00
75788;BME280;64406;50.024;14.492;2023-07-30T08:13:19;97610.75;;;14.79;100.00
75788;BME280;64406;50.024;14.492;2023-07-30T08:15:46;97614.78;;;14.73;100.00
75788;BME280;64406;50.024;14.492;2023-07-30T08:18:11;97604.41;;;14.75;100.00
75788;BME280;64406;50.024;14.492;2023-07-30T08:20:37;97611.75;;;14.74;100.00
75788;BME280;64406;50.024;14.492;2023-07-30T08:23:03;97604.41;;;14.75;100.00
75788;BME280;64406;50.024;14.492;2023-07-30T08:25:29;97617.50;;;14.73;100.00
75788;BME280;64406;50.024;14.492;2023-07-30T08:27:54;97617.47;;;14.64;100.00
75788;BME280;64406;50.024;14.492;2023-07-30T08:30:20;97611.44;;;14.67;100.00
75788;BME280;64406;50.024;14.492;2023-07-30T08:32:46;97617.78;;;14.62;100.00
75788;BME280;64406;50.024;14.492;2023-07-30T08:35:12;97617.00;;;14.71;100.00
75788;BME280;64406;50.024;14.492;2023-07-30T08:37:37;97613.78;;;14.77;100.00
75788;BME280;64406;50.024;14.492;2023-07-30T08:40:03;97619.22;;;14.86;100.00
75788;BME280;64406;50.024;14.492;2023-07-30T08:42:29;97607.38;;;14.90;100.00
75788;BME280;64406;50.024;14.492;2023-07-30T08:44:55;97606.28;;;15.00;100.00
75788;BME280;64406;50.024;14.492;2023-07-30T08:47:21;97602.28;;;15.06;100.00
75788;BME280;64406;50.024;14.492;2023-07-30T08:49:46;97608.94;;;15.17;100.00
75788;BME280;64406;50.024;14.492;2023-07-30T08:52:12;97606.22;;;15.17;100.00
75788;BME280;64406;50.024;14.492;2023-07-30T08:54:38;97609.22;;;15.33;100.00
75788;BME280;64406;50.024;14.492;2023-07-30T08:57:05;97599.56;;;15.53;100.00
75788;BME280;64406;50.024;14.492;2023-07-30T08:59:37;97602.47;;;15.77;100.00
75788;BME280;64406;50.024;14.492;2023-07-30T09:02:09;97598.56;;;15.66;100.00
75788;BME280;64406;50.024;14.492;2023-07-30T09:04:38;97603.44;;;15.82;100.00
75788;BME280;64406;50.024;14.492;2023-07-30T09:07:08;97602.06;;;15.96;100.00
75788;BME280;64406;50.024;14.492;2023-07-30T09:09:34;97601.97;;;16.14;100.00
75788;BME280;64406;50.024;14.492;2023-07-30T09:12:00;97597.47;;;16.18;100.00
75788;BME280;64406;50.024;14.492;2023-07-30T09:14:26;97603.97;;;16.25;100.00
75788;BME280;64406;50.024;14.492;2023-07-30T09:16:58;97606.69;;;16.25;100.00
75788;BME280;64406;50.024;14.492;2023-07-30T09:19:24;97602.16;;;16.29;100.00
75788;BME280;64406;50.024;14.492;2023-07-30T09:21:49;97606.28;;;16.15;100.00
75788;BME280;64406;50.024;14.492;2023-07-30T09:24:21;97614.03;;;16.25;100.00
75788;BME280;64406;50.024;14.492;2023-07-30T09:26:47;97609.34;;;16.34;100.00
75788;BME280;64406;50.024;14.492;2023-07-30T09:29:12;97604.84;;;16.38;100.00
75788;BME280;64406;50.024;14.492;2023-07-30T09:31:52;97599.84;;;16.40;100.00
75788;BME280;64406;50.024;14.492;2023-07-30T09:34:20;97599.72;;;16.78;100.00
75788;BME280;64406;50.024;14.492;2023-07-30T09:36:46;97594.34;;;16.91;100.00
75788;BME280;64406;50.024;14.492;2023-07-30T09:39:26;97599.97;;;17.19;100.00
75788;BME280;64406;50.024;14.492;2023-07-30T09:41:59;97603.56;;;17.80;100.00
75788;BME280;64406;50.024;14.492;2023-07-30T09:44:25;97603.44;;;17.89;98.08
75788;BME280;64406;50.024;14.492;2023-07-30T09:46:50;97599.31;;;18.19;97.71
75788;BME280;64406;50.024;14.492;2023-07-30T09:49:17;97590.53;;;18.79;96.92
75788;BME280;64406;50.024;14.492;2023-07-30T09:51:43;97596.94;;;18.58;92.62
75788;BME280;64406;50.024;14.492;2023-07-30T09:54:11;97597.13;;;18.78;94.00
75788;BME280;64406;50.024;14.492;2023-07-30T09:56:39;97600.69;;;18.94;93.98
75788;BME280;64406;50.024;14.492;2023-07-30T09:59:06;97599.06;;;18.77;94.03
75788;BME280;64406;50.024;14.492;2023-07-30T10:01:41;97603.03;;;18.80;93.27
75788;BME280;64406;50.024;14.492;2023-07-30T10:04:09;97591.28;;;19.07;93.43
75788;BME280;64406;50.024;14.492;2023-07-30T10:06:39;97593.28;;;19.38;91.16
75788;BME280;64406;50.024;14.492;2023-07-30T10:09:07;97594.38;;;19.06;89.89
75788;BME280;64406;50.024;14.492;2023-07-30T10:11:34;97603.19;;;18.99;90.14
75788;BME280;64406;50.024;14.492;2023-07-30T10:14:01;97596.97;;;19.46;91.71
75788;BME280;64406;50.024;14.492;2023-07-30T10:16:30;97591.19;;;19.63;89.04
75788;BME280;64406;50.024;14.492;2023-07-30T10:18:57;97584.84;;;19.75;87.36
75788;BME280;64406;50.024;14.492;2023-07-30T10:21:25;97591.25;;;19.51;88.59
75788;BME280;64406;50.024;14.492;2023-07-30T10:24:04;97599.66;;;18.98;89.52
75788;BME280;64406;50.024;14.492;2023-07-30T10:26:32;97599.94;;;18.81;90.82
75788;BME280;64406;50.024;14.492;2023-07-30T10:29:18;97594.03;;;19.07;91.09
75788;BME280;64406;50.024;14.492;2023-07-30T10:31:51;97601.59;;;18.98;87.86
75788;BME280;64406;50.024;14.492;2023-07-30T10:34:17;97590.78;;;19.17;88.38
75788;BME280;64406;50.024;14.492;2023-07-30T10:36:45;97593.28;;;19.22;87.08
75788;BME280;64406;50.024;14.492;2023-07-30T10:39:19;97583.66;;;19.13;87.87
75788;BME280;64406;50.024;14.492;2023-07-30T10:41:54;97587.63;;;19.47;88.83
75788;BME280;64406;50.024;14.492;2023-07-30T10:44:34;97577.50;;;19.79;88.69
75788;BME280;64406;50.024;14.492;2023-07-30T10:47:01;97585.69;;;19.95;89.24
75788;BME280;64406;50.024;14.492;2023-07-30T10:49:27;97585.25;;;20.28;85.88
75788;BME280;64406;50.024;14.492;2023-07-30T10:51:57;97572.44;;;20.67;82.57
75788;BME280;64406;50.024;14.492;2023-07-30T10:54:23;97569.16;;;21.00;81.11
75788;BME280;64406;50.024;14.492;2023-07-30T10:56:49;97577.91;;;21.09;82.41
75788;BME280;64406;50.024;14.492;2023-07-30T10:59:15;97579.69;;;20.79;80.66
75788;BME280;64406;50.024;14.492;2023-07-30T11:01:43;97572.53;;;21.36;79.75
75788;BME280;64406;50.024;14.492;2023-07-30T11:04:14;97568.75;;;21.21;77.77
75788;BME280;64406;50.024;14.492;2023-07-30T11:06:48;97571.28;;;20.68;79.78
75788;BME280;64406;50.024;14.492;2023-07-30T11:09:24;97574.19;;;20.79;80.04
75788;BME280;64406;50.024;14.492;2023-07-30T11:11:52;97565.22;;;20.59;78.93
75788;BME280;64406;50.024;14.492;2023-07-30T11:14:19;97559.53;;;20.48;80.54
75788;BME280;64406;50.024;14.492;2023-07-30T11:16:53;97566.28;;;20.93;80.47
75788;BME280;64406;50.024;14.492;2023-07-30T11:19:19;97561.06;;;21.07;76.54
75788;BME280;64406;50.024;14.492;2023-07-30T11:21:46;97560.56;;;21.02;76.20
75788;BME280;64406;50.024;14.492;2023-07-30T11:24:12;97557.44;;;20.80;77.95
75788;BME280;64406;50.024;14.492;2023-07-30T11:26:38;97556.66;;;21.03;75.81
75788;BME280;64406;50.024;14.492;2023-07-30T11:31:46;97565.41;;;21.31;73.48
75788;BME280;64406;50.024;14.492;2023-07-30T11:34:15;97558.09;;;21.39;73.79
75788;BME280;64406;50.024;14.492;2023-07-30T11:36:42;97557.16;;;21.77;70.95
75788;BME280;64406;50.024;14.492;2023-07-30T11:39:08;97549.00;;;22.37;69.05
75788;BME280;64406;50.024;14.492;2023-07-30T11:41:35;97548.66;;;23.06;70.05
75788;BME280;64406;50.024;14.492;2023-07-30T11:44:01;97542.44;;;23.16;68.20
75788;BME280;64406;50.024;14.492;2023-07-30T11:46:27;97542.19;;;23.73;67.90
75788;BME280;64406;50.024;14.492;2023-07-30T11:49:19;97538.81;;;23.97;67.48
75788;BME280;64406;50.024;14.492;2023-07-30T11:51:47;97526.53;;;24.53;64.52
75788;BME280;64406;50.024;14.492;2023-07-30T11:54:21;97521.91;;;24.02;65.47
75788;BME280;64406;50.024;14.492;2023-07-30T11:56:54;97533.94;;;23.76;64.54
75788;BME280;64406;50.024;14.492;2023-07-30T11:59:21;97534.88;;;23.02;65.14
75788;BME280;64406;50.024;14.492;2023-07-30T12:01:49;97539.59;;;22.38;68.25
75788;BME280;64406;50.024;14.492;2023-07-30T12:04:15;97551.88;;;22.18;68.71
75788;BME280;64406;50.024;14.492;2023-07-30T12:11:58;97533.13;;;22.20;67.52
75788;BME280;64406;50.024;14.492;2023-07-30T12:14:25;97531.41;;;21.85;68.76
75788;BME280;64406;50.024;14.492;2023-07-30T12:17:04;97522.84;;;21.87;69.02
75788;BME280;64406;50.024;14.492;2023-07-30T12:19:30;97540.56;;;21.93;69.03
75788;BME280;64406;50.024;14.492;2023-07-30T12:21:55;97538.31;;;22.02;68.81
75788;BME280;64406;50.024;14.492;2023-07-30T12:24:21;97538.06;;;21.84;68.02
75788;BME280;64406;50.024;14.492;2023-07-30T12:26:47;97538.81;;;21.81;66.93
75788;BME280;64406;50.024;14.492;2023-07-30T12:29:13;97545.03;;;21.78;62.97
75788;BME280;64406;50.024;14.492;2023-07-30T12:31:38;97531.06;;;21.87;64.22
75788;BME280;64406;50.024;14.492;2023-07-30T12:34:04;97530.97;;;22.36;63.95
75788;BME280;64406;50.024;14.492;2023-07-30T12:36:30;97530.22;;;21.83;62.56
75788;BME280;64406;50.024;14.492;2023-07-30T12:38:55;97524.72;;;21.83;65.30
75788;BME280;64406;50.024;14.492;2023-07-30T12:41:21;97523.94;;;21.56;66.69
75788;BME280;64406;50.024;14.492;2023-07-30T12:43:54;97533.69;;;21.30;68.64
75788;BME280;64406;50.024;14.492;2023-07-30T12:46:22;97532.94;;;20.87;70.09
75788;BME280;64406;50.024;14.492;2023-07-30T12:48:48;97527.13;;;20.70;71.30
75788;BME280;64406;50.024;14.492;2023-07-30T12:51:14;97543.69;;;20.57;71.72
75788;BME280;64406;50.024;14.492;2023-07-30T12:53:40;97540.41;;;20.32;72.59
75788;BME280;64406;50.024;14.492;2023-07-30T12:56:06;97551.56;;;20.24;73.12